Time;durP1;ratioP1;P1;durP2;ratioP2;P2;SDS_P1;SDS_P2;PMS_P1;PMS_P2;Temp;Humidity;BMP_temperature;BMP_pressure;BME280_temperature;BME280_humidity;BME280_pressure;Samples;Min_cycle;Max_cycle;Signal;HPM_P1;HPM_P2
2024/03/01 00:01:53;;;;;;;1.75;1.10;;;10.70;84.40;;;;;;5016242;28;20542;-69
2024/03/01 00:04:20;;;;;;;2.33;1.73;;;10.70;84.30;;;;;;5033779;28;20034;-69
2024/03/01 00:06:46;;;;;;;2.33;1.38;;;10.70;84.20;;;;;;5033795;28;20183;-69
2024/03/01 00:09:12;;;;;;;2.90;1.60;;;10.70;84.10;;;;;;5032477;28;20037;-69
2024/03/01 00:11:38;;;;;;;7.47;1.77;;;10.70;83.90;;;;;;5032145;28;20030;-69
2024/03/01 00:14:05;;;;;;;2.72;1.42;;;10.70;84.00;;;;;;5033150;28;20037;-70
2024/03/01 00:16:31;;;;;;;1.85;1.25;;;10.70;84.10;;;;;;5033493;28;20497;-70
2024/03/01 00:18:57;;;;;;;2.25;1.15;;;10.70;83.90;;;;;;5033253;28;20018;-69
2024/03/01 00:21:23;;;;;;;2.10;1.02;;;10.70;83.80;;;;;;5034746;28;20412;-69
2024/03/01 00:23:49;;;;;;;3.20;1.40;;;10.70;83.40;;;;;;5040955;28;20405;-66
2024/03/01 00:26:15;;;;;;;3.53;1.58;;;10.60;83.30;;;;;;5034074;28;20051;-66
2024/03/01 00:28:41;;;;;;;2.67;1.45;;;10.70;83.30;;;;;;5030639;28;20043;-66
2024/03/01 00:31:07;;;;;;;2.95;1.45;;;10.70;83.10;;;;;;5022638;28;20507;-66
2024/03/01 00:33:34;;;;;;;1.75;1.15;;;10.70;83.20;;;;;;5032308;28;20033;-70
2024/03/01 00:36:00;;;;;;;1.75;1.00;;;10.60;83.20;;;;;;5031805;28;20056;-69
2024/03/01 00:38:26;;;;;;;2.40;1.40;;;10.60;83.20;;;;;;5031914;28;20022;-69
2024/03/01 00:40:52;;;;;;;1.80;0.90;;;10.70;83.20;;;;;;5033156;28;20527;-69
2024/03/01 00:43:19;;;;;;;2.63;1.05;;;10.70;83.20;;;;;;5032579;28;20388;-69
2024/03/01 00:45:45;;;;;;;2.10;1.58;;;10.70;83.20;;;;;;5031112;28;20033;-69
2024/03/01 00:48:12;;;;;;;1.77;1.02;;;10.70;83.10;;;;;;5037026;28;20028;-66
2024/03/01 00:50:40;;;;;;;3.55;1.15;;;10.70;82.90;;;;;;5028080;28;20459;-66
2024/03/01 00:53:11;;;;;;;1.45;1.05;;;10.70;82.70;;;;;;5029044;28;20037;-66
2024/03/01 00:55:38;;;;;;;1.90;1.23;;;10.70;82.50;;;;;;5028612;28;20446;-66
2024/03/01 00:58:04;;;;;;;2.85;1.27;;;10.70;82.40;;;;;;5028519;28;20056;-66
2024/03/01 01:00:30;;;;;;;1.45;1.35;;;10.70;82.40;;;;;;5027552;28;20030;-66
2024/03/01 01:02:57;;;;;;;4.00;1.83;;;10.70;82.40;;;;;;5022199;28;20040;-66
2024/03/01 01:05:22;;;;;;;2.08;1.65;;;10.70;82.40;;;;;;5028564;28;20493;-68
2024/03/01 01:07:49;;;;;;;3.28;1.40;;;10.70;82.40;;;;;;5030222;28;20393;-69
2024/03/01 01:10:15;;;;;;;1.98;1.30;;;10.70;82.30;;;;;;5032325;28;20454;-69
2024/03/01 01:12:42;;;;;;;3.60;1.73;;;10.60;82.30;;;;;;5032181;28;20376;-69
2024/03/01 01:15:08;;;;;;;1.63;0.90;;;10.60;82.20;;;;;;5032530;28;20017;-69
2024/03/01 01:17:34;;;;;;;3.08;1.92;;;10.70;82.20;;;;;;5032192;28;20040;-69
2024/03/01 01:20:00;;;;;;;2.80;1.27;;;10.70;82.10;;;;;;5032089;28;20029;-69
2024/03/01 01:22:27;;;;;;;1.35;0.90;;;10.70;82.10;;;;;;5032154;28;20037;-69
2024/03/01 01:24:53;;;;;;;1.38;1.00;;;10.70;82.10;;;;;;5028185;28;20412;-66
2024/03/01 01:27:20;;;;;;;2.17;1.05;;;10.70;82.00;;;;;;5025311;28;20480;-66
2024/03/01 01:29:45;;;;;;;2.60;1.35;;;10.70;82.00;;;;;;5027271;28;20551;-66
2024/03/01 01:32:11;;;;;;;2.47;1.52;;;10.70;82.00;;;;;;5032882;28;20033;-68
2024/03/01 01:34:37;;;;;;;2.72;1.15;;;10.70;82.00;;;;;;5034034;28;20036;-69
2024/03/01 01:37:04;;;;;;;3.70;1.58;;;10.70;82.10;;;;;;5029758;28;20030;-66
2024/03/01 01:39:33;;;;;;;2.63;1.80;;;10.70;82.10;;;;;;5026789;28;20392;-66
2024/03/01 01:41:59;;;;;;;2.85;1.50;;;10.70;82.10;;;;;;5026909;28;20057;-66
2024/03/01 01:44:25;;;;;;;2.38;1.08;;;10.60;82.00;;;;;;5028859;28;20037;-68
2024/03/01 01:46:51;;;;;;;4.07;1.75;;;10.60;82.10;;;;;;5032622;28;20480;-69
2024/03/01 01:49:19;;;;;;;2.50;1.40;;;10.60;82.20;;;;;;5030762;28;20452;-68
2024/03/01 01:51:48;;;;;;;2.33;1.60;;;10.60;82.20;;;;;;5031450;28;20476;-68
2024/03/01 01:54:15;;;;;;;4.28;1.90;;;10.60;82.10;;;;;;5029488;28;20040;-66
2024/03/01 01:56:42;;;;;;;2.70;1.77;;;10.60;82.00;;;;;;5035055;28;20036;-66
2024/03/01 01:59:10;;;;;;;1.45;1.00;;;10.70;82.10;;;;;;5027053;28;20030;-66
2024/03/01 02:01:36;;;;;;;2.05;1.67;;;10.70;82.00;;;;;;5028380;28;20100;-66
2024/03/01 02:04:03;;;;;;;1.88;1.40;;;10.70;82.00;;;;;;5026538;28;20120;-66
2024/03/01 02:06:29;;;;;;;2.63;1.80;;;10.70;82.00;;;;;;5029793;28;20025;-69
2024/03/01 02:08:56;;;;;;;3.05;1.77;;;10.70;82.00;;;;;;5025172;28;20464;-66
2024/03/01 02:11:26;;;;;;;2.75;1.55;;;10.70;82.00;;;;;;5028564;28;20138;-66
2024/03/01 02:13:56;;;;;;;2.17;1.00;;;10.70;82.10;;;;;;5023412;28;20420;-66
2024/03/01 02:16:23;;;;;;;3.50;1.83;;;10.70;81.90;;;;;;5026728;28;20037;-69
2024/03/01 02:18:50;;;;;;;4.75;2.03;;;10.70;81.90;;;;;;5031503;28;20029;-69
2024/03/01 02:21:25;;;;;;;2.85;1.73;;;10.70;81.90;;;;;;5031493;28;20018;-69
2024/03/01 02:23:51;;;;;;;2.47;1.27;;;10.70;81.90;;;;;;5031380;28;20104;-69
2024/03/01 02:26:17;;;;;;;2.17;1.40;;;10.70;81.80;;;;;;5031718;28;20053;-69
2024/03/01 02:28:45;;;;;;;2.13;1.38;;;10.70;81.80;;;;;;5030325;28;20543;-69
2024/03/01 02:31:12;;;;;;;3.95;1.63;;;10.70;81.90;;;;;;5029840;28;20037;-69
2024/03/01 02:33:38;;;;;;;2.95;1.83;;;10.70;81.90;;;;;;5031107;28;20412;-69
2024/03/01 02:36:04;;;;;;;4.47;1.95;;;10.70;82.00;;;;;;5032700;28;20034;-69
2024/03/01 02:38:30;;;;;;;3.45;1.63;;;10.70;81.80;;;;;;5036311;28;20032;-69
2024/03/01 02:40:56;;;;;;;5.60;1.88;;;10.70;81.80;;;;;;5032962;28;20029;-69
2024/03/01 02:43:22;;;;;;;3.50;1.83;;;10.70;81.70;;;;;;5029936;28;20398;-69
2024/03/01 02:45:48;;;;;;;2.20;1.45;;;10.70;81.60;;;;;;5034578;28;20026;-69
2024/03/01 02:48:14;;;;;;;2.47;1.40;;;10.60;81.60;;;;;;5032529;28;20037;-69
2024/03/01 02:50:40;;;;;;;7.13;2.70;;;10.60;81.70;;;;;;5037092;28;20104;-69
2024/03/01 02:53:06;;;;;;;3.80;2.28;;;10.50;81.70;;;;;;5033345;28;20033;-69
2024/03/01 02:55:32;;;;;;;3.25;2.17;;;10.50;81.80;;;;;;5028517;28;20029;-66
2024/03/01 02:58:00;;;;;;;4.85;1.92;;;10.50;81.80;;;;;;5031113;28;20033;-66
2024/03/01 03:00:27;;;;;;;3.80;2.30;;;10.50;81.70;;;;;;5030602;28;20480;-66
2024/03/01 03:02:53;;;;;;;2.78;1.77;;;10.40;81.70;;;;;;5036342;28;20029;-66
2024/03/01 03:05:20;;;;;;;4.38;1.95;;;10.40;81.80;;;;;;5028797;28;20556;-66
2024/03/01 03:07:48;;;;;;;3.58;2.30;;;10.40;81.80;;;;;;5024767;28;20531;-66
2024/03/01 03:10:15;;;;;;;4.95;1.95;;;10.40;81.80;;;;;;5027624;28;20136;-66
2024/03/01 03:12:41;;;;;;;3.97;2.45;;;10.40;81.80;;;;;;5025011;28;20046;-66
2024/03/01 03:15:08;;;;;;;4.70;3.00;;;10.40;81.80;;;;;;5027877;28;20036;-66
2024/03/01 03:17:37;;;;;;;5.75;2.45;;;10.30;81.70;;;;;;5032556;28;20056;-66
2024/03/01 03:20:09;;;;;;;5.03;1.92;;;10.30;81.80;;;;;;5033135;28;20024;-66
2024/03/01 03:22:44;;;;;;;;;;;10.30;81.90;;;;;;5033773;28;20030;-66
2024/03/01 03:25:13;;;;;;;9.05;2.38;;;10.20;81.90;;;;;;5029589;28;19999;-69
2024/03/01 03:27:40;;;;;;;5.20;2.65;;;10.10;82.00;;;;;;5032872;28;20033;-69
2024/03/01 03:30:07;;;;;;;3.30;2.08;;;10.10;82.00;;;;;;5034508;28;20044;-69
2024/03/01 03:32:37;;;;;;;4.53;2.38;;;10.10;81.90;;;;;;5033612;28;20055;-69
2024/03/01 03:35:06;;;;;;;5.85;2.35;;;10.10;82.00;;;;;;5033876;28;20025;-69
2024/03/01 03:37:32;;;;;;;3.88;2.05;;;10.10;81.90;;;;;;5032525;28;20037;-69
2024/03/01 03:39:58;;;;;;;3.33;2.33;;;10.10;82.00;;;;;;5033586;28;20061;-69
2024/03/01 03:42:24;;;;;;;6.70;2.33;;;10.10;81.80;;;;;;5033732;28;20448;-69
2024/03/01 03:44:50;;;;;;;5.80;2.45;;;10.10;81.80;;;;;;5033476;28;20041;-69
2024/03/01 03:47:16;;;;;;;4.65;2.72;;;10.10;81.80;;;;;;5030768;28;20108;-66
2024/03/01 03:49:45;;;;;;;3.47;2.35;;;10.10;81.80;;;;;;5034659;28;20481;-69
2024/03/01 03:52:11;;;;;;;7.05;3.92;;;10.10;81.80;;;;;;5031768;28;20053;-69
2024/03/01 03:54:38;;;;;;;5.10;2.80;;;10.10;81.70;;;;;;5032052;28;20485;-69
2024/03/01 03:57:04;;;;;;;4.97;2.00;;;10.20;81.80;;;;;;5020940;28;20024;-69
2024/03/01 03:59:30;;;;;;;3.88;2.03;;;10.20;81.70;;;;;;5033371;28;20335;-69
2024/03/01 04:01:56;;;;;;;3.70;2.10;;;10.20;81.60;;;;;;5028811;28;20025;-69
2024/03/01 04:04:22;;;;;;;3.72;2.33;;;10.20;81.50;;;;;;5033189;28;20115;-69
2024/03/01 04:06:48;;;;;;;5.75;3.08;;;10.20;81.50;;;;;;5032083;28;20574;-69
2024/03/01 04:09:15;;;;;;;7.47;2.58;;;10.20;81.60;;;;;;5031985;28;20022;-69
2024/03/01 04:11:41;;;;;;;4.90;2.78;;;10.20;81.70;;;;;;5033807;28;20113;-69
2024/03/01 04:14:10;;;;;;;6.57;2.65;;;10.20;81.70;;;;;;5035350;28;20092;-69
2024/03/01 04:16:36;;;;;;;5.70;2.50;;;10.20;81.70;;;;;;5033603;28;20064;-69
2024/03/01 04:19:02;;;;;;;5.60;2.85;;;10.20;81.70;;;;;;5033277;28;20018;-69
2024/03/01 04:21:29;;;;;;;3.42;2.05;;;10.10;81.60;;;;;;5033036;28;20075;-69
2024/03/01 04:23:55;;;;;;;4.13;2.35;;;10.10;82.30;;;;;;5033040;28;20034;-69
2024/03/01 04:26:21;;;;;;;5.68;2.33;;;10.10;81.80;;;;;;5032979;28;20414;-69
2024/03/01 04:28:47;;;;;;;3.08;2.08;;;10.10;81.80;;;;;;5032497;28;20029;-66
2024/03/01 04:31:14;;;;;;;4.43;2.45;;;10.10;81.70;;;;;;5038316;28;20045;-67
2024/03/01 04:33:40;;;;;;;5.85;2.40;;;10.10;81.70;;;;;;5019089;28;20128;-67
2024/03/01 04:36:06;;;;;;;4.82;2.58;;;10.10;81.70;;;;;;5027739;28;20036;-67
2024/03/01 04:38:32;;;;;;;7.38;2.75;;;10.10;81.90;;;;;;5029930;28;20029;-67
2024/03/01 04:40:59;;;;;;;5.85;3.03;;;10.10;82.00;;;;;;5030411;28;20013;-67
2024/03/01 04:43:25;;;;;;;3.88;1.80;;;10.10;82.50;;;;;;5028689;28;20084;-67
2024/03/01 04:45:51;;;;;;;3.15;1.88;;;10.00;82.80;;;;;;5025931;28;20030;-66
2024/03/01 04:48:17;;;;;;;3.80;1.98;;;10.10;83.20;;;;;;5065134;28;20114;-67
2024/03/01 04:50:43;;;;;;;1.85;1.23;;;10.10;83.30;;;;;;5024546;28;20049;-67
2024/03/01 04:53:09;;;;;;;1.65;1.10;;;10.20;83.70;;;;;;5034120;28;20042;-67
2024/03/01 04:55:35;;;;;;;1.40;0.98;;;10.20;84.90;;;;;;5023740;28;20033;-69
2024/03/01 04:58:01;;;;;;;1.17;0.88;;;10.20;84.70;;;;;;5030736;28;20388;-67
2024/03/01 05:00:27;;;;;;;1.90;0.95;;;10.20;85.00;;;;;;5033261;28;20074;-67
2024/03/01 05:02:54;;;;;;;1.73;0.82;;;10.20;85.40;;;;;;5025855;28;20037;-67
2024/03/01 05:05:22;;;;;;;1.30;0.88;;;10.10;85.80;;;;;;5032427;28;20052;-70
2024/03/01 05:07:49;;;;;;;1.23;1.10;;;10.10;85.80;;;;;;5038900;28;20033;-66
2024/03/01 05:10:21;;;;;;;1.08;0.85;;;10.10;86.00;;;;;;5028375;28;20033;-66
2024/03/01 05:12:49;;;;;;;1.92;1.25;;;10.00;86.30;;;;;;5023120;28;20033;-67
2024/03/01 05:15:15;;;;;;;1.35;0.90;;;10.00;86.50;;;;;;5028574;28;20029;-66
2024/03/01 05:17:43;;;;;;;0.85;0.75;;;9.90;86.60;;;;;;5025547;28;20029;-66
2024/03/01 05:20:12;;;;;;;0.82;0.70;;;10.00;86.50;;;;;;5027135;28;20507;-67
2024/03/01 05:22:39;;;;;;;1.05;0.80;;;10.00;86.40;;;;;;5032441;28;20037;-67
2024/03/01 05:25:15;;;;;;;3.35;1.25;;;9.90;86.40;;;;;;5030175;28;20026;-66
2024/03/01 05:27:50;;;;;;;0.88;0.70;;;9.90;86.50;;;;;;5025862;28;20073;-67
2024/03/01 05:30:19;;;;;;;1.58;0.95;;;9.90;86.40;;;;;;5031607;28;20029;-66
2024/03/01 05:32:46;;;;;;;1.85;1.50;;;9.90;86.50;;;;;;5027988;28;20369;-66
2024/03/01 05:35:14;;;;;;;1.85;0.98;;;9.80;86.60;;;;;;5028153;28;20477;-66
2024/03/01 05:37:43;;;;;;;1.17;0.90;;;9.80;86.70;;;;;;5023887;28;20034;-70
2024/03/01 05:40:11;;;;;;;1.55;0.60;;;9.70;86.70;;;;;;5030480;28;20477;-70
2024/03/01 05:42:46;;;;;;;0.98;0.70;;;9.70;86.60;;;;;;5030449;28;20503;-69
2024/03/01 05:45:13;;;;;;;0.52;0.43;;;9.60;86.50;;;;;;5031790;28;20025;-70
2024/03/01 05:47:40;;;;;;;0.93;0.68;;;9.60;86.20;;;;;;5031475;28;20065;-69
2024/03/01 05:50:08;;;;;;;0.80;0.45;;;9.50;85.80;;;;;;5031930;28;20021;-70
2024/03/01 05:52:37;;;;;;;0.63;0.52;;;9.40;85.70;;;;;;5031251;28;20405;-70
2024/03/01 05:55:04;;;;;;;0.50;0.50;;;9.30;85.60;;;;;;5031067;28;20465;-66
2024/03/01 05:57:31;;;;;;;0.20;0.20;;;9.30;85.60;;;;;;5028927;28;20025;-66
2024/03/01 05:59:57;;;;;;;1.52;0.50;;;9.30;85.40;;;;;;5032547;28;20024;-69
2024/03/01 06:02:24;;;;;;;0.60;0.60;;;9.30;85.10;;;;;;5036526;28;20033;-70
2024/03/01 06:04:50;;;;;;;0.80;0.45;;;9.30;85.00;;;;;;5029274;28;20045;-66
2024/03/01 06:07:16;;;;;;;0.50;0.40;;;9.30;85.00;;;;;;5030031;28;20068;-66
2024/03/01 06:09:42;;;;;;;0.95;0.50;;;9.20;84.80;;;;;;5024006;28;20033;-66
2024/03/01 06:12:08;;;;;;;1.13;0.55;;;9.20;84.60;;;;;;5023620;28;20041;-66
2024/03/01 06:14:33;;;;;;;0.30;0.30;;;9.20;84.50;;;;;;5030551;28;20034;-66
2024/03/01 06:16:59;;;;;;;1.02;0.32;;;9.20;84.40;;;;;;5030272;28;20053;-66
2024/03/01 06:19:25;;;;;;;0.50;0.47;;;9.20;84.30;;;;;;5030238;28;20132;-66
2024/03/01 06:21:55;;;;;;;1.13;0.52;;;9.20;84.00;;;;;;5024160;28;20117;-66
2024/03/01 06:24:21;;;;;;;0.60;0.60;;;9.20;84.00;;;;;;5029038;28;20513;-66
2024/03/01 06:26:49;;;;;;;0.88;0.57;;;9.20;83.90;;;;;;5039259;28;20448;-66
2024/03/01 06:29:15;;;;;;;0.63;0.63;;;9.30;83.80;;;;;;5033552;28;20045;-66
2024/03/01 06:31:42;;;;;;;0.38;0.38;;;9.30;83.70;;;;;;5034033;28;20028;-66
2024/03/01 06:34:07;;;;;;;0.82;0.50;;;9.30;83.50;;;;;;5031992;28;20469;-67
2024/03/01 06:36:33;;;;;;;1.48;0.70;;;9.30;83.50;;;;;;5033371;28;20030;-66
2024/03/01 06:38:59;;;;;;;0.80;0.40;;;9.30;83.50;;;;;;5025492;28;20084;-67
2024/03/01 06:41:25;;;;;;;1.00;0.77;;;9.40;83.60;;;;;;5033965;28;20041;-66
2024/03/01 06:43:51;;;;;;;0.80;0.43;;;9.40;83.50;;;;;;5032192;28;20036;-66
2024/03/01 06:46:16;;;;;;;0.70;0.50;;;9.30;83.30;;;;;;5032451;28;20041;-66
2024/03/01 06:48:42;;;;;;;0.75;0.75;;;9.30;83.40;;;;;;5033503;28;20404;-66
2024/03/01 06:51:08;;;;;;;1.45;1.23;;;9.30;83.40;;;;;;5038070;28;20513;-66
2024/03/01 06:53:33;;;;;;;1.45;0.82;;;9.30;83.60;;;;;;5032469;28;20029;-66
2024/03/01 06:56:04;;;;;;;1.35;0.88;;;9.40;83.60;;;;;;5031466;28;20029;-66
2024/03/01 06:58:30;;;;;;;0.70;0.57;;;9.50;83.50;;;;;;5032965;28;20036;-67
2024/03/01 07:00:56;;;;;;;1.73;1.23;;;9.50;83.40;;;;;;5025264;28;20104;-67
2024/03/01 07:03:22;;;;;;;0.75;0.65;;;9.60;83.30;;;;;;5029620;28;20080;-70
2024/03/01 07:05:47;;;;;;;1.48;1.02;;;9.60;83.30;;;;;;5033306;28;20037;-70
2024/03/01 07:08:13;;;;;;;1.15;1.05;;;9.60;83.20;;;;;;5037175;28;20399;-70
2024/03/01 07:10:38;;;;;;;2.60;1.10;;;9.60;83.20;;;;;;5031842;28;20037;-70
2024/03/01 07:13:04;;;;;;;2.67;0.88;;;9.70;83.20;;;;;;5027923;28;20029;-70
2024/03/01 07:15:30;;;;;;;2.40;1.35;;;9.70;83.10;;;;;;5031537;28;20029;-70
2024/03/01 07:17:57;;;;;;;1.00;0.73;;;9.60;83.10;;;;;;5031661;28;20056;-66
2024/03/01 07:20:23;;;;;;;1.10;1.00;;;9.60;83.20;;;;;;5028809;28;20029;-66
2024/03/01 07:22:49;;;;;;;2.00;0.55;;;9.60;83.30;;;;;;5031237;28;20022;-70
2024/03/01 07:25:15;;;;;;;6.45;1.15;;;9.50;83.40;;;;;;5032999;28;20383;-70
2024/03/01 07:27:44;;;;;;;0.70;0.38;;;9.50;83.30;;;;;;5033758;28;20029;-70
2024/03/01 07:30:10;;;;;;;1.83;1.17;;;9.40;83.50;;;;;;5039563;28;20040;-70
2024/03/01 07:32:36;;;;;;;1.45;1.10;;;9.40;83.70;;;;;;5033902;28;20026;-66
2024/03/01 07:35:03;;;;;;;1.25;0.50;;;9.40;83.70;;;;;;5033841;28;20017;-70
2024/03/01 07:37:30;;;;;;;1.23;0.57;;;9.40;83.70;;;;;;5031785;28;20052;-70
2024/03/01 07:39:56;;;;;;;1.25;1.00;;;9.50;83.60;;;;;;5049077;28;20484;-70
2024/03/01 07:42:25;;;;;;;2.00;0.88;;;9.40;83.50;;;;;;5034928;28;20025;-70
2024/03/01 07:44:52;;;;;;;2.72;1.23;;;9.40;83.60;;;;;;5031885;28;20485;-70
2024/03/01 07:47:17;;;;;;;4.10;1.20;;;9.40;83.60;;;;;;5032693;28;20060;-70
2024/03/01 07:49:43;;;;;;;1.73;1.05;;;9.30;83.50;;;;;;5030654;28;20057;-70
2024/03/01 07:52:09;;;;;;;2.95;1.42;;;9.30;83.50;;;;;;5015215;28;20498;-66
2024/03/01 07:54:34;;;;;;;2.08;0.95;;;9.40;83.70;;;;;;5029232;28;20076;-70
2024/03/01 07:57:00;;;;;;;1.75;1.10;;;9.40;83.50;;;;;;5029919;28;20547;-66
2024/03/01 07:59:27;;;;;;;1.42;1.15;;;9.40;83.20;;;;;;5031511;28;20036;-66
2024/03/01 08:01:52;;;;;;;2.15;0.95;;;9.30;83.30;;;;;;5030578;28;20071;-66
2024/03/01 08:04:18;;;;;;;2.03;1.10;;;9.40;83.40;;;;;;5030464;28;20465;-66
2024/03/01 08:06:44;;;;;;;1.70;0.90;;;9.50;83.20;;;;;;5029548;28;20041;-66
2024/03/01 08:09:17;;;;;;;1.15;0.93;;;9.50;83.10;;;;;;5021247;28;20033;-70
2024/03/01 08:11:48;;;;;;;2.10;1.20;;;9.50;83.00;;;;;;5030159;28;20053;-70
2024/03/01 08:14:33;;;;;;;2.63;1.33;;;9.60;82.80;;;;;;5031968;28;20028;-65
2024/03/01 08:16:59;;;;;;;1.80;1.35;;;9.60;82.60;;;;;;5028693;28;20044;-65
2024/03/01 08:19:39;;;;;;;2.67;0.55;;;9.60;82.50;;;;;;5035087;28;20369;-72
2024/03/01 08:22:10;;;;;;;0.77;0.68;;;9.60;82.50;;;;;;5033623;28;20469;-73
2024/03/01 08:24:37;;;;;;;5.85;1.33;;;9.60;82.50;;;;;;5032956;28;20128;-73
2024/03/01 08:27:04;;;;;;;2.17;1.38;;;9.60;82.30;;;;;;5062938;28;20029;-73
2024/03/01 08:29:32;;;;;;;2.42;1.15;;;9.60;82.30;;;;;;5030004;28;20029;-72
2024/03/01 08:31:58;;;;;;;2.00;1.00;;;9.70;82.30;;;;;;5019672;28;20025;-73
2024/03/01 08:34:33;;;;;;;3.05;1.45;;;9.80;82.10;;;;;;5025581;28;20041;-74
2024/03/01 08:36:59;;;;;;;2.63;1.10;;;9.90;81.90;;;;;;5020873;28;20443;-69
2024/03/01 08:39:25;;;;;;;3.80;1.75;;;9.90;81.60;;;;;;5026175;28;20038;-71
2024/03/01 08:41:52;;;;;;;5.28;2.45;;;9.90;81.50;;;;;;5029552;28;20041;-73
2024/03/01 08:44:41;;;;;;;2.60;1.65;;;10.00;81.00;;;;;;5022955;28;20562;-68
2024/03/01 08:47:25;;;;;;;4.03;1.95;;;10.00;80.80;;;;;;5017439;28;20059;-67
2024/03/01 08:49:54;;;;;;;2.75;1.52;;;10.10;80.80;;;;;;5029125;28;20485;-66
2024/03/01 08:52:37;;;;;;;2.63;1.90;;;10.10;80.70;;;;;;5017742;28;20042;-73
2024/03/01 08:55:18;;;;;;;5.50;2.15;;;10.20;80.50;;;;;;5024325;28;20396;-72
2024/03/01 08:57:48;;;;;;;6.00;2.40;;;10.30;80.30;;;;;;5020112;28;20014;-72
2024/03/01 09:00:23;;;;;;;3.95;2.30;;;10.30;80.30;;;;;;5012549;28;20025;-72
2024/03/01 09:02:49;;;;;;;11.07;2.65;;;10.30;80.10;;;;;;5020994;28;20370;-72
2024/03/01 09:05:15;;;;;;;5.30;2.65;;;10.30;79.30;;;;;;5036956;28;20208;-72
2024/03/01 09:07:41;;;;;;;5.55;2.00;;;10.30;79.50;;;;;;5016226;28;20065;-72
2024/03/01 09:10:32;;;;;;;5.22;2.95;;;10.30;79.40;;;;;;5022054;28;20281;-65
2024/03/01 09:12:58;;;;;;;3.25;2.08;;;10.30;79.40;;;;;;5018671;28;20053;-65
2024/03/01 09:15:26;;;;;;;4.22;2.30;;;10.40;79.20;;;;;;5012775;28;20029;-66
2024/03/01 09:17:54;;;;;;;6.95;3.10;;;10.30;78.20;;;;;;5029899;28;20017;-65
2024/03/01 09:20:34;;;;;;;3.10;1.65;;;10.20;78.30;;;;;;5019880;28;20140;-66
2024/03/01 09:23:05;;;;;;;3.55;2.13;;;10.20;78.40;;;;;;5028913;28;20028;-65
2024/03/01 09:25:49;;;;;;;5.13;2.63;;;10.10;78.60;;;;;;5020830;28;20056;-65
2024/03/01 09:28:20;;;;;;;4.00;2.35;;;10.10;78.80;;;;;;5034240;28;20045;-66
2024/03/01 09:30:51;;;;;;;3.80;2.20;;;10.10;78.10;;;;;;5025915;28;20385;-66
2024/03/01 09:33:21;;;;;;;4.25;2.40;;;10.20;78.10;;;;;;5017801;28;20536;-66
2024/03/01 09:35:50;;;;;;;3.80;2.03;;;10.30;77.90;;;;;;5029569;28;20415;-65
2024/03/01 09:38:16;;;;;;;3.80;2.15;;;10.40;77.80;;;;;;5032835;28;20025;-66
2024/03/01 09:40:50;;;;;;;5.78;3.00;;;10.60;77.80;;;;;;5017156;28;20033;-66
2024/03/01 09:43:22;;;;;;;4.00;2.25;;;10.80;76.80;;;;;;5033340;28;20065;-65
2024/03/01 09:46:34;;;;;;;3.45;2.00;;;10.80;76.70;;;;;;5018564;28;20049;-72
2024/03/01 09:48:59;;;;;;;3.63;1.97;;;10.90;76.90;;;;;;5038974;28;20037;-65
2024/03/01 09:51:45;;;;;;;3.88;2.15;;;11.10;76.30;;;;;;5034141;28;20389;-65
2024/03/01 09:54:14;;;;;;;5.50;2.33;;;11.20;74.80;;;;;;5028666;28;20118;-66
2024/03/01 09:57:07;;;;;;;3.80;1.60;;;11.30;74.90;;;;;;5034966;28;20029;-65
2024/03/01 10:00:07;;;;;;;3.83;2.20;;;11.40;74.90;;;;;;5033528;28;21564;-72
2024/03/01 10:02:54;;;;;;;6.32;2.15;;;11.50;74.90;;;;;;5019571;28;20037;-65
2024/03/01 10:05:49;;;;;;;3.47;2.10;;;11.50;74.80;;;;;;5048003;28;20039;-65
2024/03/01 10:08:59;;;;;;;2.00;1.38;;;11.60;74.50;;;;;;5028411;28;20067;-71
2024/03/01 10:11:52;;;;;;;3.70;1.20;;;11.80;74.20;;;;;;5031172;28;20826;-65
2024/03/01 10:14:34;;;;;;;4.22;2.20;;;11.80;74.00;;;;;;5021066;28;20022;-66
2024/03/01 10:17:07;;;;;;;9.45;2.33;;;11.90;73.60;;;;;;5023595;28;20081;-66
2024/03/01 10:19:39;;;;;;;4.18;1.63;;;12.00;73.40;;;;;;5022947;28;20939;-72
2024/03/01 10:22:33;;;;;;;7.05;1.50;;;12.00;72.40;;;;;;5023049;28;20078;-72
2024/03/01 10:25:28;;;;;;;1.90;1.27;;;12.00;72.80;;;;;;5023780;28;20025;-72
2024/03/01 10:28:15;;;;;;;3.17;1.38;;;12.10;72.80;;;;;;5026186;28;20507;-72
2024/03/01 10:31:00;;;;;;;2.90;1.20;;;12.00;72.60;;;;;;5035615;28;20075;-72
2024/03/01 10:33:39;;;;;;;1.55;0.82;;;11.90;71.80;;;;;;5021350;28;20436;-72
2024/03/01 10:36:28;;;;;;;1.25;1.05;;;12.00;72.20;;;;;;5024679;28;20029;-72
2024/03/01 10:39:14;;;;;;;2.90;1.33;;;12.10;72.30;;;;;;5031282;28;20022;-72
2024/03/01 10:42:01;;;;;;;2.70;1.60;;;12.50;72.50;;;;;;5029976;28;20026;-72
2024/03/01 10:44:35;;;;;;;2.83;1.48;;;12.90;72.00;;;;;;5033568;28;20366;-72
2024/03/01 10:47:17;;;;;;;1.65;0.95;;;13.00;70.20;;;;;;5034913;28;20033;-72
2024/03/01 10:50:06;;;;;;;1.23;0.80;;;12.90;70.40;;;;;;5029590;28;20219;-72
2024/03/01 10:52:40;;;;;;;2.45;1.73;;;12.90;70.60;;;;;;5037885;28;20045;-72
2024/03/01 10:55:20;;;;;;;2.08;1.13;;;13.10;70.50;;;;;;5025924;28;20037;-72
2024/03/01 10:58:09;;;;;;;2.65;1.27;;;13.30;70.10;;;;;;5057892;28;20032;-72
2024/03/01 11:00:45;;;;;;;2.60;1.35;;;13.50;68.10;;;;;;5032251;28;20025;-72
2024/03/01 11:03:24;;;;;;;1.42;1.20;;;13.40;67.70;;;;;;5028121;28;20059;-72
2024/03/01 11:05:50;;;;;;;6.30;1.45;;;13.20;66.80;;;;;;5027957;28;20084;-72
2024/03/01 11:08:28;;;;;;;4.10;1.27;;;13.00;67.10;;;;;;5025127;28;20052;-72
2024/03/01 11:11:04;;;;;;;7.57;1.80;;;12.70;66.70;;;;;;5018714;28;20026;-72
2024/03/01 11:13:34;;;;;;;1.88;1.48;;;12.50;67.90;;;;;;5030408;28;20056;-72
2024/03/01 11:16:01;;;;;;;1.98;1.05;;;12.60;68.60;;;;;;5027005;28;20032;-72
2024/03/01 11:18:37;;;;;;;2.72;1.40;;;12.60;68.20;;;;;;5025513;28;20028;-72
2024/03/01 11:21:07;;;;;;;1.45;1.02;;;12.60;68.20;;;;;;5020124;28;20503;-72
2024/03/01 11:23:42;;;;;;;1.02;0.80;;;12.50;68.10;;;;;;5018756;28;20511;-66
2024/03/01 11:26:16;;;;;;;5.03;1.25;;;12.50;68.60;;;;;;5023173;28;20169;-66
2024/03/01 11:28:54;;;;;;;1.77;1.25;;;12.70;68.30;;;;;;5026986;28;20034;-66
2024/03/01 11:31:31;;;;;;;1.40;1.30;;;12.90;67.40;;;;;;5019897;28;20370;-72
2024/03/01 11:34:01;;;;;;;2.55;1.10;;;13.10;66.70;;;;;;5022172;28;20026;-72
2024/03/01 11:36:48;;;;;;;1.13;0.68;;;13.10;66.00;;;;;;5021172;28;20132;-72
2024/03/01 11:39:38;;;;;;;1.92;1.08;;;13.10;65.60;;;;;;5048876;28;20029;-66
2024/03/01 11:42:22;;;;;;;3.30;0.70;;;13.10;65.80;;;;;;5032350;28;20014;-67
2024/03/01 11:44:48;;;;;;;1.70;0.95;;;13.30;65.50;;;;;;5027984;28;20018;-66
2024/03/01 11:47:54;;;;;;;0.70;0.70;;;13.40;64.90;;;;;;5023880;28;20362;-67
2024/03/01 11:50:32;;;;;;;2.50;0.73;;;13.60;64.80;;;;;;5059004;28;20071;-66
2024/03/01 11:53:04;;;;;;;3.05;1.33;;;13.80;64.40;;;;;;5027601;28;20429;-66
2024/03/01 11:55:50;;;;;;;0.95;0.77;;;13.90;64.90;;;;;;5032150;28;20405;-66
2024/03/01 11:58:35;;;;;;;2.75;1.08;;;14.20;64.90;;;;;;5032706;28;20481;-65
2024/03/01 12:01:13;;;;;;;1.55;0.80;;;14.30;64.60;;;;;;5026833;28;20104;-66
2024/03/01 12:04:00;;;;;;;1.05;0.73;;;14.40;63.20;;;;;;5025722;28;20040;-66
2024/03/01 12:06:41;;;;;;;0.88;0.47;;;14.50;63.70;;;;;;5043760;28;20119;-72
2024/03/01 12:09:26;;;;;;;2.35;0.88;;;14.70;63.60;;;;;;5014649;28;20026;-72
2024/03/01 12:12:05;;;;;;;1.70;0.82;;;15.10;63.30;;;;;;5023786;28;20052;-73
2024/03/01 12:14:38;;;;;;;0.95;0.88;;;15.20;60.60;;;;;;5025272;28;20461;-72
2024/03/01 12:17:22;;;;;;;6.28;1.00;;;15.20;61.40;;;;;;5021311;28;20072;-72
2024/03/01 12:19:53;;;;;;;0.88;0.65;;;15.50;61.10;;;;;;5023313;28;20033;-72
2024/03/01 12:22:46;;;;;;;1.23;0.45;;;15.40;59.80;;;;;;5020667;28;20024;-73
2024/03/01 12:25:12;;;;;;;1.27;0.85;;;15.20;59.70;;;;;;5024304;28;20045;-72
2024/03/01 12:28:08;;;;;;;1.33;0.60;;;15.10;60.20;;;;;;5019684;28;20380;-72
2024/03/01 12:30:37;;;;;;;0.77;0.50;;;15.10;60.40;;;;;;5026556;28;20111;-72
2024/03/01 12:33:34;;;;;;;2.28;0.75;;;15.20;59.40;;;;;;5014204;28;20034;-73
2024/03/01 12:36:33;;;;;;;1.10;0.50;;;15.30;58.90;;;;;;5017061;28;20100;-72
2024/03/01 12:39:02;;;;;;;0.50;0.50;;;15.50;59.20;;;;;;5031564;28;20472;-73
2024/03/01 12:41:40;;;;;;;0.50;0.50;;;15.80;59.10;;;;;;5028665;28;20021;-72
2024/03/01 12:44:41;;;;;;;1.33;0.95;;;16.00;58.40;;;;;;5025545;28;20035;-72
2024/03/01 12:47:45;;;;;;;3.67;0.68;;;16.20;57.90;;;;;;5024410;28;20038;-72
2024/03/01 12:50:28;;;;;;;1.17;0.82;;;16.10;57.30;;;;;;5024740;28;20465;-72
2024/03/01 12:53:19;;;;;;;0.30;0.20;;;15.60;57.10;;;;;;5022915;28;20579;-72
2024/03/01 12:56:09;;;;;;;2.67;0.70;;;15.00;58.60;;;;;;5032286;28;20108;-66
2024/03/01 12:58:50;;;;;;;0.95;0.60;;;14.60;59.40;;;;;;5028930;28;20038;-65
2024/03/01 13:01:15;;;;;;;0.47;0.47;;;14.20;59.70;;;;;;5028865;28;20445;-66
2024/03/01 13:04:09;;;;;;;0.25;0.22;;;13.90;60.60;;;;;;5030271;28;20140;-66
2024/03/01 13:06:35;;;;;;;0.50;0.30;;;13.70;61.20;;;;;;5028238;28;20033;-66
2024/03/01 13:09:19;;;;;;;1.67;0.38;;;13.60;61.70;;;;;;5032520;28;20116;-66
2024/03/01 13:11:48;;;;;;;0.40;0.40;;;13.50;62.20;;;;;;5022205;28;20076;-72